This is the latest recevied weather packets stored in our database for station/object K9ABJ. If no packets are shown the sender has not sent any weather packets the latest 10 day(s).
| Time | Temp. | Humidity | Pressure | Rain* | Wind** | Luminosity | Snow |
|---|---|---|---|---|---|---|---|
| 1788046898 | 23.89° C | 77% | 1019.1 hPa | 0 mm | - | 22 W/m² | - |
| 1788046596 | 23.89° C | 77% | 1019.1 hPa | 0 mm | - | 28 W/m² | - |
| 1788046292 | 23.89° C | 77% | 1019.2 hPa | 0 mm | - | 32 W/m² | - |
| 1788045990 | 24.44° C | 77% | 1019.2 hPa | 0 mm | - | 34 W/m² | - |
| 1788045686 | 24.44° C | 76% | 1019.3 hPa | 0 mm | - | 37 W/m² | - |
| 1788045385 | 24.44° C | 75% | 1019.3 hPa | 0 mm | - | 37 W/m² | - |
| 1788045080 | 25° C | 72% | 1019.4 hPa | 0 mm | - | 38 W/m² | - |
| 1788044780 | 25° C | 71% | 1019.6 hPa | 0 mm | - | 42 W/m² | - |
| 1788044475 | 26.67° C | 67% | 1019.6 hPa | 0 mm | - | 44 W/m² | - |
| 1788044174 | 26.11° C | 66% | 1019.5 hPa | 0 mm | - | 45 W/m² | - |
| 1788043870 | 26.11° C | 67% | 1019.6 hPa | 0 mm | - | 48 W/m² | - |
| 1788043565 | 25.56° C | 67% | 1019.7 hPa | 0 mm | - | 53 W/m² | - |
| 1788043260 | 25.56° C | 65% | 1019.9 hPa | 0 mm | - | 61 W/m² | - |
| 1788042955 | 25.56° C | 65% | 1019.7 hPa | 0 mm | - | 73 W/m² | - |
| 1788042650 | 26.11° C | 64% | 1019.3 hPa | 0 mm | - | 84 W/m² | - |
| 1788042349 | 26.11° C | 63% | 1019.6 hPa | 0 mm | - | 91 W/m² | - |
| 1788042044 | 25.56° C | 63% | 1019.7 hPa | 0 mm | - | 89 W/m² | - |
| 1788041740 | 26.11° C | 62% | 1019.6 hPa | 0 mm | - | 89 W/m² | - |
| 1788041435 | 26.11° C | 63% | 1019.5 hPa | 0 mm | - | 91 W/m² | - |
| 1788041134 | 26.11° C | 63% | 1019.7 hPa | 0 mm | - | 99 W/m² | - |
| 1788040829 | 26.67° C | 61% | 1019.6 hPa | 0 mm | - | 111 W/m² | - |
| 1788040522 | 26.11° C | 61% | 1019.6 hPa | 0 mm | - | 125 W/m² | - |
| 1788040219 | 26.67° C | 59% | 1019.6 hPa | 0 mm | - | 137 W/m² | - |
| 1788039917 | 26.67° C | 59% | 1019.6 hPa | 0 mm | - | 137 W/m² | - |
| 1788039617 | 26.67° C | 59% | 1019.7 hPa | 0 mm | - | 132 W/m² | - |
* Rain latest hour (hover to see other rain measurements)
** Current wind speed in m/s (hover to see current wind gust speed)